createdAt,value
2019-04-19T00:00:24.917Z,52.10
2019-04-19T00:02:54.645Z,52.10
2019-04-19T00:05:35.820Z,52.10
2019-04-19T00:08:20.007Z,52.30
2019-04-19T00:10:38.443Z,52.20
2019-04-19T00:13:04.956Z,52.20
2019-04-19T00:15:32.770Z,52.20
2019-04-19T00:18:06.270Z,52.40
2019-04-19T00:20:49.940Z,52.30
2019-04-19T00:23:08.675Z,52.50
2019-04-19T00:25:30.342Z,52.40
2019-04-19T00:27:59.923Z,52.40
2019-04-19T00:30:38.779Z,52.70
2019-04-19T00:33:11.266Z,52.80
2019-04-19T00:35:26.417Z,53.20
2019-04-19T00:38:02.652Z,53.00
2019-04-19T00:40:38.196Z,53.10
2019-04-19T00:43:18.835Z,53.10
2019-04-19T00:46:00.688Z,53.20
2019-04-19T00:48:30.087Z,53.20
2019-04-19T00:50:54.214Z,53.30
2019-04-19T00:53:24.128Z,53.40
2019-04-19T00:55:51.193Z,53.30
2019-04-19T00:58:16.293Z,53.40
2019-04-19T01:00:39.866Z,53.50
2019-04-19T01:03:06.449Z,53.50
2019-04-19T01:05:44.045Z,53.80
2019-04-19T01:08:10.268Z,53.80
2019-04-19T01:10:44.078Z,53.90
2019-04-19T01:13:13.926Z,53.80
2019-04-19T01:15:47.489Z,53.80
2019-04-19T01:18:15.314Z,53.90
2019-04-19T01:20:31.134Z,53.70
2019-04-19T01:23:05.662Z,54.10
2019-04-19T01:25:30.505Z,54.10
2019-04-19T01:28:03.599Z,54.20
2019-04-19T01:30:31.503Z,54.00
2019-04-19T01:32:59.774Z,54.00
2019-04-19T01:35:26.102Z,54.40
2019-04-19T01:37:59.465Z,54.20
2019-04-19T01:40:43.943Z,54.50
2019-04-19T01:43:13.146Z,54.40
2019-04-19T01:45:49.364Z,54.40
2019-04-19T01:48:39.241Z,54.20
2019-04-19T01:51:37.015Z,54.10
2019-04-19T01:54:03.083Z,54.30
2019-04-19T01:56:17.195Z,54.20
2019-04-19T01:58:47.078Z,54.10
2019-04-19T02:01:19.188Z,54.20
2019-04-19T02:03:46.821Z,54.40
2019-04-19T02:06:15.957Z,54.40
2019-04-19T02:08:50.357Z,54.20
2019-04-19T02:11:46.655Z,54.00
2019-04-19T02:14:12.990Z,54.20
2019-04-19T02:16:36.393Z,54.90
2019-04-19T02:19:10.139Z,54.50
2019-04-19T02:21:38.074Z,54.40
2019-04-19T02:24:05.806Z,54.30
2019-04-19T02:26:38.452Z,54.60
2019-04-19T02:29:11.187Z,54.90
2019-04-19T02:32:00.936Z,54.90
2019-04-19T02:39:40.370Z,54.70
2019-04-19T02:42:12.056Z,54.70
2019-04-19T02:44:42.215Z,54.90
2019-04-19T02:47:15.178Z,54.90
2019-04-19T02:49:44.766Z,55.20
2019-04-19T02:52:11.468Z,55.30
2019-04-19T02:55:00.393Z,55.40
2019-04-19T02:57:43.230Z,55.30
2019-04-19T03:03:07.822Z,55.40
2019-04-19T03:05:36.561Z,55.30
2019-04-19T03:07:32.273Z,55.60
2019-04-19T03:10:07.043Z,55.40
2019-04-19T03:12:51.658Z,55.40
2019-04-19T03:15:14.082Z,55.40
2019-04-19T03:17:58.657Z,55.40
2019-04-19T03:20:18.037Z,55.80
2019-04-19T03:22:49.471Z,56.40
2019-04-19T03:25:17.202Z,56.00
2019-04-19T03:27:45.602Z,56.00
2019-04-19T03:30:11.109Z,55.80
2019-04-19T03:35:19.248Z,55.80
2019-04-19T03:37:44.420Z,56.00
2019-04-19T03:42:56.437Z,56.20
2019-04-19T03:45:28.846Z,56.10
2019-04-19T03:48:06.305Z,56.70
2019-04-19T03:50:26.593Z,56.40
2019-04-19T03:52:55.827Z,56.30
2019-04-19T03:55:24.401Z,56.60
2019-04-19T03:57:45.707Z,56.50
2019-04-19T04:00:09.009Z,56.70
2019-04-19T04:02:41.141Z,57.00
2019-04-19T04:05:10.889Z,56.70
2019-04-19T04:07:36.856Z,56.70
2019-04-19T04:10:27.570Z,56.60
2019-04-19T04:13:04.715Z,56.50
2019-04-19T04:16:11.510Z,56.90
2019-04-19T04:18:30.264Z,57.30
2019-04-19T04:20:59.414Z,57.30
2019-04-19T04:23:33.552Z,57.10
2019-04-19T04:26:04.324Z,57.20
2019-04-19T04:28:40.043Z,57.40
2019-04-19T04:31:05.759Z,57.40
2019-04-19T04:33:36.018Z,57.30
2019-04-19T04:36:20.070Z,57.20
2019-04-19T04:38:29.133Z,57.10
2019-04-19T04:40:52.824Z,57.30
2019-04-19T04:43:34.642Z,57.30
2019-04-19T04:46:21.090Z,57.30
2019-04-19T04:48:51.317Z,57.30
2019-04-19T04:51:31.080Z,57.30
2019-04-19T04:53:47.138Z,57.60
2019-04-19T04:56:19.459Z,57.60
2019-04-19T04:58:49.077Z,57.60
2019-04-19T05:01:32.428Z,57.50
2019-04-19T05:04:01.899Z,57.70
2019-04-19T05:06:30.916Z,57.90
2019-04-19T05:08:58.788Z,58.00
2019-04-19T05:11:30.649Z,58.10
2019-04-19T05:14:09.635Z,58.50
2019-04-19T05:16:55.599Z,58.40
2019-04-19T05:19:00.676Z,58.70
2019-04-19T05:21:27.491Z,58.80
2019-04-19T05:24:05.401Z,58.70
2019-04-19T05:28:55.511Z,59.40
2019-04-19T05:31:22.689Z,59.10
2019-04-19T05:33:51.779Z,59.50
2019-04-19T05:36:29.543Z,59.40
2019-04-19T05:39:03.035Z,59.60
2019-04-19T05:41:34.952Z,59.80
2019-04-19T05:44:36.062Z,59.90
2019-04-19T05:47:03.384Z,60.10
2019-04-19T05:49:22.952Z,60.60
2019-04-19T05:51:55.177Z,60.70
2019-04-19T05:54:11.930Z,60.70
2019-04-19T05:56:45.143Z,60.40
2019-04-19T05:59:14.734Z,60.40
2019-04-19T06:01:55.086Z,60.50
2019-04-19T06:04:26.162Z,59.50
2019-04-19T06:06:56.472Z,59.30
2019-04-19T06:09:09.167Z,58.80
2019-04-19T06:11:40.884Z,57.40
2019-04-19T06:14:28.964Z,57.80
2019-04-19T06:17:08.857Z,57.60
2019-04-19T06:19:39.903Z,57.50
2019-04-19T06:22:07.855Z,57.50
2019-04-19T06:24:46.797Z,57.20
2019-04-19T06:27:13.915Z,57.20
2019-04-19T06:29:51.207Z,56.80
2019-04-19T06:32:16.506Z,56.80
2019-04-19T06:34:42.642Z,55.60
2019-04-19T06:37:02.414Z,55.10
2019-04-19T06:39:22.579Z,55.10
2019-04-19T06:41:55.734Z,54.50
2019-04-19T06:44:42.345Z,54.70
2019-04-19T06:47:00.796Z,54.60
2019-04-19T06:49:22.917Z,54.30
2019-04-19T06:51:54.313Z,54.70
2019-04-19T06:54:24.872Z,54.20
2019-04-19T06:56:54.606Z,54.70
2019-04-19T06:59:30.007Z,54.40
2019-04-19T07:01:52.409Z,54.00
2019-04-19T07:04:15.215Z,53.90
2019-04-19T07:07:05.583Z,53.30
2019-04-19T07:09:37.114Z,53.30
2019-04-19T07:12:06.904Z,53.50
2019-04-19T07:14:20.634Z,53.20
2019-04-19T07:17:01.356Z,53.30
2019-04-19T07:19:30.835Z,53.30
2019-04-19T07:21:57.911Z,53.60
2019-04-19T07:24:36.523Z,53.80
2019-04-19T07:26:57.835Z,53.60
2019-04-19T07:29:10.573Z,53.50
2019-04-19T07:31:38.718Z,54.30
2019-04-19T07:34:22.234Z,53.80
2019-04-19T07:36:59.400Z,53.80
2019-04-19T07:39:24.226Z,53.80
2019-04-19T07:41:50.534Z,53.50
2019-04-19T07:44:38.688Z,53.30
2019-04-19T07:47:40.105Z,53.60
2019-04-19T07:50:08.476Z,53.70
2019-04-19T07:52:40.234Z,54.30
2019-04-19T07:55:03.269Z,54.00
2019-04-19T08:00:22.486Z,53.90
2019-04-19T08:02:49.747Z,54.00
2019-04-19T08:05:15.144Z,54.30
2019-04-19T08:08:01.347Z,54.30
2019-04-19T08:10:38.496Z,54.10
2019-04-19T08:12:42.718Z,54.40
2019-04-19T08:17:56.773Z,54.60
2019-04-19T08:27:26.571Z,54.90
2019-04-19T08:29:56.107Z,55.60
2019-04-19T08:32:17.859Z,54.90
2019-04-19T08:34:47.006Z,54.80
2019-04-19T08:37:22.339Z,55.00
2019-04-19T08:39:58.166Z,55.10
2019-04-19T08:42:30.868Z,55.10
2019-04-19T08:44:51.521Z,55.40
2019-04-19T08:47:38.901Z,55.10
2019-04-19T08:50:18.400Z,54.90
2019-04-19T08:52:51.241Z,54.30
2019-04-19T08:55:37.625Z,54.20
2019-04-19T08:57:49.522Z,54.30
2019-04-19T09:00:49.915Z,53.80
2019-04-19T09:03:00.206Z,53.60
2019-04-19T09:05:31.266Z,53.80
2019-04-19T09:08:05.649Z,54.00
2019-04-19T09:10:39.162Z,54.20
2019-04-19T09:13:12.255Z,54.10
2019-04-19T09:15:27.804Z,54.70
2019-04-19T09:20:38.792Z,54.10
2019-04-19T09:23:00.367Z,53.80
2019-04-19T09:25:48.759Z,54.00
2019-04-19T09:28:39.151Z,54.10
2019-04-19T09:30:55.638Z,53.80
2019-04-19T09:33:14.400Z,53.70
2019-04-19T09:35:43.896Z,53.90
2019-04-19T09:38:17.465Z,53.90
2019-04-19T09:40:42.149Z,53.20
2019-04-19T09:43:21.350Z,53.20
2019-04-19T09:45:33.938Z,52.60
2019-04-19T09:48:03.173Z,52.60
2019-04-19T09:50:47.208Z,52.40
2019-04-19T09:53:30.764Z,53.10
2019-04-19T09:55:49.815Z,52.50
2019-04-19T09:58:17.165Z,52.40
2019-04-19T10:00:31.734Z,52.20
2019-04-19T10:03:03.894Z,51.80
2019-04-19T10:05:28.623Z,51.70
2019-04-19T10:07:56.748Z,51.60
2019-04-19T10:10:25.108Z,51.50
2019-04-19T10:12:53.785Z,51.30
2019-04-19T10:15:30.675Z,51.40
2019-04-19T10:17:58.700Z,51.20
2019-04-19T10:20:36.448Z,51.30
2019-04-19T10:23:05.175Z,51.30
2019-04-19T10:25:41.926Z,51.20
2019-04-19T10:28:05.587Z,50.90
2019-04-19T10:30:39.200Z,50.80
2019-04-19T10:33:06.720Z,50.90
2019-04-19T10:35:35.669Z,50.90
2019-04-19T10:38:03.931Z,50.60
2019-04-19T10:40:31.765Z,50.00
2019-04-19T10:43:01.113Z,49.70
2019-04-19T10:45:29.966Z,49.50
2019-04-19T10:47:58.305Z,49.20
2019-04-19T10:50:42.302Z,49.00
2019-04-19T10:53:02.717Z,49.00
2019-04-19T10:55:36.261Z,48.90
2019-04-19T10:58:05.279Z,48.60
2019-04-19T11:00:33.588Z,48.40
2019-04-19T11:03:01.104Z,47.90
2019-04-19T11:05:32.614Z,48.00
2019-04-19T11:08:01.247Z,48.00
2019-04-19T11:10:29.568Z,48.00
2019-04-19T11:12:57.020Z,48.20
2019-04-19T11:15:26.292Z,47.80
2019-04-19T11:17:53.870Z,47.50
2019-04-19T11:20:33.849Z,47.20
2019-04-19T11:22:51.600Z,46.60
2019-04-19T11:25:20.017Z,46.40
2019-04-19T11:27:50.760Z,46.40
2019-04-19T11:30:35.138Z,46.60
2019-04-19T11:33:07.044Z,47.00
2019-04-19T11:35:41.438Z,45.70
2019-04-19T11:38:08.983Z,45.40
2019-04-19T11:40:37.565Z,45.80
2019-04-19T11:43:04.962Z,45.80
2019-04-19T11:45:33.575Z,45.90
2019-04-19T11:48:00.942Z,45.90
2019-04-19T11:50:29.447Z,45.60
2019-04-19T11:53:26.900Z,45.60
2019-04-19T11:56:14.396Z,45.50
2019-04-19T11:58:42.635Z,45.50
2019-04-19T12:01:19.832Z,45.60
2019-04-19T12:03:47.934Z,45.40
2019-04-19T12:06:16.252Z,45.70
2019-04-19T12:08:44.517Z,46.30
2019-04-19T12:11:15.695Z,46.40
2019-04-19T12:13:43.745Z,46.20
2019-04-19T12:16:10.986Z,46.40
2019-04-19T12:18:40.586Z,46.70
2019-04-19T12:21:09.273Z,46.30
2019-04-19T12:23:36.993Z,46.50
2019-04-19T12:26:06.005Z,45.70
2019-04-19T12:28:33.595Z,44.80
2019-04-19T12:31:01.468Z,45.20
2019-04-19T12:33:29.232Z,45.50
2019-04-19T12:35:57.175Z,45.50
2019-04-19T12:38:26.010Z,45.80
2019-04-19T12:40:56.181Z,45.90
2019-04-19T12:43:24.177Z,45.90
2019-04-19T12:45:52.517Z,45.20
2019-04-19T12:48:21.690Z,45.00
2019-04-19T12:50:49.650Z,45.10
2019-04-19T12:53:17.324Z,44.80
2019-04-19T12:55:44.548Z,44.40
2019-04-19T12:58:12.195Z,44.00
2019-04-19T13:00:59.943Z,43.70
2019-04-19T13:03:46.409Z,43.30
2019-04-19T13:06:15.705Z,43.10
2019-04-19T13:08:43.230Z,43.10
2019-04-19T13:11:11.283Z,43.60
2019-04-19T13:13:39.553Z,43.90
2019-04-19T13:16:08.265Z,44.00
2019-04-19T13:18:36.224Z,44.30
2019-04-19T13:21:04.009Z,43.80
2019-04-19T13:23:32.581Z,43.50
2019-04-19T13:26:02.982Z,43.30
2019-04-19T13:28:31.263Z,43.10
2019-04-19T13:31:01.356Z,42.60
2019-04-19T13:33:30.346Z,42.50
2019-04-19T13:35:59.314Z,42.50
2019-04-19T13:38:32.862Z,42.50
2019-04-19T13:41:29.273Z,43.20
2019-04-19T13:43:58.587Z,43.60
2019-04-19T13:46:26.581Z,44.00
2019-04-19T13:48:54.691Z,44.40
2019-04-19T13:51:22.768Z,43.90
2019-04-19T13:53:50.975Z,43.60
2019-04-19T13:56:18.712Z,43.20
2019-04-19T13:58:47.631Z,43.00
2019-04-19T14:01:16.436Z,42.00
2019-04-19T14:03:45.539Z,42.20
2019-04-19T14:06:14.670Z,42.00
2019-04-19T14:08:42.849Z,42.00
2019-04-19T14:11:11.081Z,42.40
2019-04-19T14:13:39.611Z,42.20
2019-04-19T14:16:07.179Z,41.80
2019-04-19T14:18:35.047Z,41.40
2019-04-19T14:21:03.186Z,41.30
2019-04-19T14:23:31.327Z,41.00
2019-04-19T14:25:59.299Z,41.30
2019-04-19T14:28:29.172Z,41.50
2019-04-19T14:31:01.203Z,41.40
2019-04-19T14:33:25.396Z,41.20
2019-04-19T14:35:53.042Z,41.30
2019-04-19T14:38:21.504Z,41.50
2019-04-19T14:40:49.316Z,41.30
2019-04-19T14:43:18.449Z,41.20
2019-04-19T14:45:46.990Z,41.20
2019-04-19T14:48:16.623Z,40.80
2019-04-19T14:50:57.812Z,40.90
2019-04-19T14:53:14.248Z,40.60
2019-04-19T14:55:43.565Z,40.60
2019-04-19T14:58:11.415Z,40.40
2019-04-19T15:00:41.073Z,40.10
2019-04-19T15:03:21.108Z,40.40
2019-04-19T15:05:49.952Z,40.50
2019-04-19T15:08:17.351Z,40.60
2019-04-19T15:10:45.369Z,40.90
2019-04-19T15:13:14.752Z,40.70
2019-04-19T15:15:44.199Z,41.00
2019-04-19T15:18:11.315Z,40.30
2019-04-19T15:20:38.443Z,40.00
2019-04-19T15:23:06.823Z,40.10
2019-04-19T15:25:34.941Z,40.00
2019-04-19T15:28:02.560Z,39.80
2019-04-19T15:30:30.795Z,39.90
2019-04-19T15:32:58.542Z,39.80
2019-04-19T15:35:25.887Z,40.10
2019-04-19T15:37:53.967Z,40.40
2019-04-19T15:40:23.890Z,40.40
2019-04-19T15:42:52.694Z,40.40
2019-04-19T15:45:23.145Z,40.10
2019-04-19T15:47:51.067Z,39.70
2019-04-19T15:50:22.012Z,39.80
2019-04-19T15:52:50.286Z,39.70
2019-04-19T15:55:19.839Z,39.70
2019-04-19T15:57:48.485Z,40.20
2019-04-19T16:00:22.579Z,39.60
2019-04-19T16:02:55.904Z,39.60
2019-04-19T16:05:46.305Z,39.10
2019-04-19T16:08:40.878Z,38.70
2019-04-19T16:11:28.964Z,38.90
2019-04-19T16:13:57.475Z,38.70
2019-04-19T16:16:25.300Z,39.30
2019-04-19T16:18:52.304Z,39.20
2019-04-19T16:21:25.982Z,39.20
2019-04-19T16:23:51.282Z,39.20
2019-04-19T16:26:19.146Z,39.00
2019-04-19T16:28:48.003Z,39.20
2019-04-19T16:31:15.644Z,39.60
2019-04-19T16:33:43.948Z,40.00
2019-04-19T16:36:12.624Z,39.60
2019-04-19T16:38:40.425Z,39.40
2019-04-19T16:41:08.619Z,39.50
2019-04-19T16:43:37.556Z,39.60
2019-04-19T16:46:12.551Z,39.30
2019-04-19T16:48:34.899Z,39.10
2019-04-19T16:51:02.651Z,39.60
2019-04-19T16:53:30.168Z,39.40
2019-04-19T16:55:57.414Z,39.40
2019-04-19T16:58:26.408Z,39.40
2019-04-19T17:00:54.661Z,39.20
2019-04-19T17:03:23.462Z,39.20
2019-04-19T17:05:53.920Z,39.50
2019-04-19T17:08:21.734Z,39.60
2019-04-19T17:10:51.019Z,39.50
2019-04-19T17:13:18.853Z,39.40
2019-04-19T17:15:53.208Z,39.40
2019-04-19T17:18:40.635Z,39.60
2019-04-19T17:21:10.681Z,39.70
2019-04-19T17:23:38.515Z,39.70
2019-04-19T17:26:06.854Z,39.40
2019-04-19T17:28:35.020Z,39.40
2019-04-19T17:31:02.732Z,39.40
2019-04-19T17:33:30.419Z,39.40
2019-04-19T17:35:58.151Z,39.60
2019-04-19T17:38:33.636Z,39.90
2019-04-19T17:40:55.019Z,40.20
2019-04-19T17:43:23.560Z,40.20
2019-04-19T17:45:52.556Z,40.40
2019-04-19T17:48:20.824Z,41.00
2019-04-19T17:50:49.072Z,41.20
2019-04-19T17:53:16.387Z,41.60
2019-04-19T17:55:49.903Z,42.10
2019-04-19T17:58:15.184Z,42.30
2019-04-19T18:00:44.099Z,42.80
2019-04-19T18:03:11.343Z,43.30
2019-04-19T18:05:38.432Z,43.50
2019-04-19T18:08:06.823Z,44.10
2019-04-19T18:10:43.511Z,44.40
2019-04-19T18:13:05.361Z,45.20
2019-04-19T18:15:34.947Z,44.50
2019-04-19T18:18:06.932Z,44.60
2019-04-19T18:20:35.371Z,45.50
2019-04-19T18:23:09.715Z,45.10
2019-04-19T18:25:35.774Z,45.50
2019-04-19T18:28:06.130Z,45.80
2019-04-19T18:30:33.656Z,45.80
2019-04-19T18:33:08.285Z,45.80
2019-04-19T18:35:37.469Z,45.90
2019-04-19T18:38:13.086Z,46.00
2019-04-19T18:40:37.279Z,45.90
2019-04-19T18:43:18.852Z,46.10
2019-04-19T18:45:37.656Z,46.90
2019-04-19T18:48:03.331Z,46.20
2019-04-19T18:50:32.899Z,46.20
2019-04-19T18:53:11.972Z,46.20
2019-04-19T18:55:36.220Z,46.40
2019-04-19T18:57:58.348Z,46.40
2019-04-19T19:00:33.271Z,46.40
2019-04-19T19:03:00.301Z,46.30
2019-04-19T19:05:25.777Z,46.40
2019-04-19T19:08:01.109Z,46.50
2019-04-19T19:10:33.418Z,46.50
2019-04-19T19:12:56.097Z,46.30
2019-04-19T19:15:33.344Z,46.20
2019-04-19T19:17:57.642Z,46.40
2019-04-19T19:20:34.449Z,46.50
2019-04-19T19:23:14.211Z,46.40
2019-04-19T19:25:40.740Z,46.50
2019-04-19T19:28:04.183Z,46.60
2019-04-19T19:30:33.173Z,46.70
2019-04-19T19:33:10.965Z,46.60
2019-04-19T19:35:32.981Z,46.90
2019-04-19T19:38:08.354Z,46.80
2019-04-19T19:40:39.898Z,46.70
2019-04-19T19:43:20.273Z,46.70
2019-04-19T19:45:44.371Z,46.80
2019-04-19T19:48:38.835Z,46.90
2019-04-19T19:51:04.810Z,47.00
2019-04-19T19:53:48.883Z,47.40
2019-04-19T19:56:13.748Z,47.50
2019-04-19T19:58:24.466Z,47.40
2019-04-19T20:01:04.409Z,47.20
2019-04-19T20:03:22.268Z,47.70
2019-04-19T20:05:45.888Z,48.30
2019-04-19T20:08:24.932Z,47.80
2019-04-19T20:10:47.850Z,47.90
2019-04-19T20:13:17.660Z,48.30
2019-04-19T20:15:47.513Z,48.50
2019-04-19T20:18:15.950Z,48.40
2019-04-19T20:20:44.562Z,48.30
2019-04-19T20:23:21.699Z,49.00
2019-04-19T20:25:50.582Z,49.30
2019-04-19T20:28:16.298Z,49.10
2019-04-19T20:30:48.246Z,49.30
2019-04-19T20:33:16.164Z,49.50
2019-04-19T20:35:45.203Z,50.00
2019-04-19T20:38:18.430Z,50.20
2019-04-19T20:40:53.500Z,49.90
2019-04-19T20:43:31.897Z,50.10
2019-04-19T20:45:49.616Z,50.10
2019-04-19T20:48:19.366Z,50.20
2019-04-19T20:50:52.251Z,50.10
2019-04-19T20:53:32.292Z,50.00
2019-04-19T20:56:29.293Z,50.30
2019-04-19T20:58:33.187Z,50.40
2019-04-19T21:00:55.053Z,50.20
2019-04-19T21:03:28.309Z,50.40
2019-04-19T21:05:54.359Z,50.40
2019-04-19T21:08:23.412Z,50.50
2019-04-19T21:10:57.167Z,50.70
2019-04-19T21:13:21.304Z,50.80
2019-04-19T21:15:49.255Z,50.90
2019-04-19T21:18:23.504Z,50.80
2019-04-19T21:20:46.765Z,51.10
2019-04-19T21:23:21.982Z,51.00
2019-04-19T21:25:50.520Z,51.10
2019-04-19T21:28:14.786Z,50.90
2019-04-19T21:30:47.080Z,51.20
2019-04-19T21:33:14.215Z,51.40
2019-04-19T21:35:48.551Z,51.40
2019-04-19T21:38:15.845Z,51.70
2019-04-19T21:40:43.574Z,51.60
2019-04-19T21:43:11.238Z,52.00
2019-04-19T21:45:43.204Z,52.10
2019-04-19T21:48:08.745Z,52.20
2019-04-19T21:50:42.082Z,52.00
2019-04-19T21:53:09.359Z,52.30
2019-04-19T21:55:40.781Z,52.40
2019-04-19T21:58:08.928Z,52.50
2019-04-19T22:00:45.367Z,52.50
2019-04-19T22:03:19.353Z,52.50
2019-04-19T22:05:43.323Z,52.60
2019-04-19T22:08:14.679Z,52.70
2019-04-19T22:10:43.859Z,52.80
2019-04-19T22:13:10.387Z,53.10
2019-04-19T22:15:46.131Z,52.90
2019-04-19T22:18:08.823Z,53.10
2019-04-19T22:20:38.640Z,53.00
2019-04-19T22:23:10.855Z,53.10
2019-04-19T22:25:46.238Z,53.30
2019-04-19T22:28:05.883Z,53.50
2019-04-19T22:30:40.686Z,53.40
2019-04-19T22:33:05.180Z,53.40
2019-04-19T22:35:31.992Z,53.20
2019-04-19T22:38:00.890Z,53.00
2019-04-19T22:40:29.052Z,53.00
2019-04-19T22:43:02.973Z,52.90
2019-04-19T22:45:28.713Z,52.70
2019-04-19T22:48:02.176Z,52.60
2019-04-19T22:50:30.708Z,53.00
2019-04-19T22:52:54.756Z,52.80
2019-04-19T22:55:22.865Z,52.80
2019-04-19T22:57:55.793Z,52.90
2019-04-19T23:00:23.912Z,53.00
2019-04-19T23:03:03.013Z,53.40
2019-04-19T23:05:38.606Z,53.30
2019-04-19T23:08:03.389Z,53.40
2019-04-19T23:10:41.920Z,53.80
2019-04-19T23:13:04.940Z,53.20
2019-04-19T23:15:35.567Z,52.80
2019-04-19T23:18:04.437Z,52.80
2019-04-19T23:20:33.150Z,53.20
2019-04-19T23:23:00.948Z,53.60
2019-04-19T23:25:36.274Z,53.60
2019-04-19T23:28:09.420Z,53.80
2019-04-19T23:30:31.361Z,53.50
2019-04-19T23:33:06.004Z,53.40
2019-04-19T23:35:33.294Z,53.40
2019-04-19T23:37:57.167Z,53.40
2019-04-19T23:40:30.056Z,53.50
2019-04-19T23:42:55.508Z,54.00
2019-04-19T23:45:25.462Z,53.80
2019-04-19T23:47:54.093Z,54.10
2019-04-19T23:50:27.903Z,53.90
2019-04-19T23:52:52.856Z,53.70
2019-04-19T23:55:20.848Z,53.60
2019-04-19T23:57:52.781Z,53.00
